Nearby METAR Reports

 

EGTE - Exeter Airport, United Kingdom
Distance from station: S 19km
Updated: 20/08/2017 10:20
Partly cloudy
Partly cloudy
 Wind from SSW
Wind: SSW 15 km/h
Temperature: 17°C
Dew Point: 13°C
Humidity: 77%
Barometer: 1024 hPa
Clouds: Partly cloudy
Visibility: 10 km
Cloud details: Few Clouds 366 m
Partly cloudy 914 m
2017/08/20 09:20 EGTE 200920Z 21008KT 9999 FEW012 SCT030 17/13 Q1024
EGDY - Yeovilton (navy), United Kingdom
Distance from station: ENE 55km
Updated: 20/08/2017 09:50
Few Clouds
Few Clouds
 Wind from SSW
Wind: SSW 15 km/h
Temperature: 16°C
Dew Point: 12°C
Humidity: 77%
Barometer: 1024 hPa
Clouds: Few Clouds
Visibility: 10 km
Cloud details: Few Clouds 671 m
2017/08/20 08:50 EGDY 200850Z AUTO 21008KT 9999 FEW022/// 16/12 Q1024
 
EGFF - Cardiff-Wales Ar, United Kingdom
Distance from station: N 56km
Updated: 20/08/2017 10:20
Mostly cloudy
Mostly cloudy
 Wind from SW
Wind: SW 9 km/h
Temperature: 16°C
Dew Point: 12°C
Humidity: 77%
Barometer: 1024 hPa
Clouds: Mostly cloudy
Visibility: 10 km
Cloud details: Partly cloudy 1097 m
Mostly cloudy 1341 m
2017/08/20 09:20 EGFF 200920Z AUTO 22005KT 9999 SCT036 BKN044 16/12 Q1024
EGDX - St Athan Raf, United Kingdom
Distance from station: N 58km
Updated: 20/08/2017 09:50
Mostly cloudy
Mostly cloudy
 Wind from SSW
Wind: SSW 6 km/h
Temperature: 16°C
Dew Point: 12°C
Humidity: 77%
Barometer: 1023 hPa
Clouds: Mostly cloudy
Visibility: 10 km
Cloud details: Partly cloudy 610 m
Mostly cloudy 1219 m
2017/08/20 08:50 EGDX 200850Z 21003KT 9999 SCT020 BKN040 16/12 Q1023 WHT
 
EGGD - Bristol/Lulsgate, United Kingdom
Distance from station: NE 71km
Updated: 20/08/2017 10:20
Few Clouds
Few Clouds
 Wind from SSW
Wind: SSW 11 km/h
Temperature: 15°C
Dew Point: 11°C
Humidity: 77%
Barometer: 1024 hPa
Clouds: Few Clouds
Visibility: 10 km
Cloud details: Few Clouds 518 m
2017/08/20 09:20 EGGD 200920Z AUTO 21006KT 9999 FEW017 15/11 Q1024